KLIC/LIC METAR and TAF weather

Enter ICAO airport designator
Station Type Date Time Source
KLIC METAR 2019/04/19 07:55 UTC NOAA

KLIC 190755Z AUTO 00000KT 10SM FEW100 M03/M05 A3024 RMK AO2 SLP232 T10281050


Station Type Date Time Source
KLIC Decoded METAR 2019/04/19 07:55 UTC NOAA

LIMON MUNICIPAL AIRPORT, CO, United States (KLIC) 39-16N 103-40W 1630M
Apr 19, 2019 - 03:55 AM EDT / 2019.04.19 0755 UTC
Wind: Calm:0
Visibility: 10 mile(s):0
Sky conditions: mostly clear
Temperature: 27.0 F (-2.8 C)
Dew Point: 23.0 F (-5.0 C)
Relative Humidity: 84%
Pressure (altimeter): 30.24 in. Hg (1024 hPa)
ob: KLIC 190755Z AUTO 00000KT 10SM FEW100 M03/M05 A3024 RMK AO2 SLP232 T10281050
cycle: 8

Station Type Date Time Source
KLIC TAF UTC NOAA

Error!

Example: see airport list